createdAt,value
2023-06-29T00:01:27.453Z,26.26
2023-06-29T00:03:29.468Z,26.25
2023-06-29T00:05:31.013Z,26.26
2023-06-29T00:07:34.881Z,26.26
2023-06-29T00:09:36.482Z,26.25
2023-06-29T00:11:37.975Z,26.24
2023-06-29T00:13:39.520Z,26.24
2023-06-29T00:15:41.349Z,26.24
2023-06-29T00:17:45.592Z,26.23
2023-06-29T00:19:50.153Z,26.22
2023-06-29T00:21:51.751Z,26.22
2023-06-29T00:23:54.687Z,26.22
2023-06-29T00:25:57.527Z,26.21
2023-06-29T00:27:59.365Z,26.21
2023-06-29T00:30:01.214Z,26.20
2023-06-29T00:32:02.768Z,26.20
2023-06-29T00:34:04.261Z,26.20
2023-06-29T00:36:05.800Z,26.19
2023-06-29T00:38:07.315Z,26.19
2023-06-29T00:40:09.338Z,26.19
2023-06-29T00:42:11.097Z,26.19
2023-06-29T00:44:12.680Z,26.16
2023-06-29T00:46:16.311Z,26.17
2023-06-29T00:48:17.831Z,26.17
2023-06-29T00:50:19.612Z,26.18
2023-06-29T00:52:21.132Z,26.16
2023-06-29T00:54:23.194Z,26.17
2023-06-29T00:56:25.036Z,26.16
2023-06-29T00:58:26.913Z,26.16
2023-06-29T01:00:28.409Z,26.16
2023-06-29T01:02:36.597Z,26.15
2023-06-29T01:04:38.561Z,26.15
2023-06-29T01:06:46.181Z,26.15
2023-06-29T01:08:49.788Z,26.15
2023-06-29T01:10:51.485Z,26.14
2023-06-29T01:12:54.054Z,26.15
2023-06-29T01:14:55.993Z,26.14
2023-06-29T01:16:59.309Z,26.14
2023-06-29T01:19:06.297Z,26.12
2023-06-29T01:21:08.029Z,26.12
2023-06-29T01:23:12.048Z,26.12
2023-06-29T01:25:14.441Z,26.12
2023-06-29T01:27:16.508Z,26.12
2023-06-29T01:29:25.936Z,26.12
2023-06-29T01:31:28.350Z,26.10
2023-06-29T01:33:30.432Z,26.11
2023-06-29T01:35:31.865Z,26.10
2023-06-29T01:37:53.586Z,26.10
2023-06-29T01:39:57.156Z,26.10
2023-06-29T01:42:00.209Z,26.09
2023-06-29T01:44:04.141Z,26.09
2023-06-29T01:46:05.928Z,26.09
2023-06-29T01:48:07.699Z,26.08
2023-06-29T01:50:09.810Z,26.08
2023-06-29T01:52:11.486Z,26.07
2023-06-29T01:54:12.980Z,26.06
2023-06-29T01:56:15.145Z,26.07
2023-06-29T01:58:16.590Z,26.06
2023-06-29T02:00:18.141Z,26.06
2023-06-29T02:02:19.639Z,26.04
2023-06-29T02:04:21.112Z,26.04
2023-06-29T02:06:22.560Z,26.04
2023-06-29T02:08:24.181Z,26.04
2023-06-29T02:10:25.689Z,26.04
2023-06-29T02:12:30.842Z,26.03
2023-06-29T02:14:32.392Z,26.03
2023-06-29T02:16:34.058Z,26.03
2023-06-29T02:18:35.906Z,26.02
2023-06-29T02:20:37.619Z,26.02
2023-06-29T02:22:39.111Z,26.02
2023-06-29T02:24:40.630Z,26.01
2023-06-29T02:26:42.162Z,26.03
2023-06-29T02:28:43.684Z,26.01
2023-06-29T02:30:45.495Z,26.00
2023-06-29T02:32:47.251Z,26.00
2023-06-29T02:34:48.781Z,26.00
2023-06-29T02:36:50.482Z,26.00
2023-06-29T02:38:51.994Z,25.99
2023-06-29T02:40:53.480Z,26.00
2023-06-29T02:42:54.940Z,25.99
2023-06-29T02:44:56.684Z,26.00
2023-06-29T02:46:59.680Z,25.99
2023-06-29T02:49:01.169Z,25.99
2023-06-29T02:51:03.666Z,25.98
2023-06-29T02:53:05.269Z,25.98
2023-06-29T02:55:07.393Z,25.98
2023-06-29T02:57:08.845Z,25.98
2023-06-29T02:59:10.412Z,25.98
2023-06-29T03:01:11.879Z,25.97
2023-06-29T03:03:13.422Z,25.97
2023-06-29T03:05:15.057Z,25.97
2023-06-29T03:07:16.772Z,25.98
2023-06-29T03:09:18.358Z,25.98
2023-06-29T03:11:19.818Z,25.96
2023-06-29T03:13:21.354Z,25.96
2023-06-29T03:15:22.910Z,25.96
2023-06-29T03:17:25.817Z,25.95
2023-06-29T03:19:27.427Z,25.95
2023-06-29T03:21:28.916Z,25.95
2023-06-29T03:23:30.397Z,25.94
2023-06-29T03:25:31.985Z,25.95
2023-06-29T03:27:33.430Z,25.95
2023-06-29T03:29:35.097Z,25.94
2023-06-29T03:31:36.550Z,25.95
2023-06-29T03:33:37.995Z,25.95
2023-06-29T03:35:39.475Z,25.94
2023-06-29T03:37:40.990Z,25.93
2023-06-29T03:39:42.521Z,25.93
2023-06-29T03:41:44.291Z,25.93
2023-06-29T03:43:45.788Z,25.93
2023-06-29T03:45:47.229Z,25.92
2023-06-29T03:47:49.152Z,25.92
2023-06-29T03:49:50.750Z,25.92
2023-06-29T03:51:52.351Z,25.92
2023-06-29T03:53:53.858Z,25.91
2023-06-29T03:55:55.558Z,25.91
2023-06-29T03:57:58.904Z,25.90
2023-06-29T04:00:00.402Z,25.91
2023-06-29T04:02:02.082Z,25.90
2023-06-29T04:04:03.674Z,25.89
2023-06-29T04:06:05.150Z,25.89
2023-06-29T04:08:06.692Z,25.89
2023-06-29T04:10:08.377Z,25.88
2023-06-29T04:12:09.991Z,25.88
2023-06-29T04:14:11.588Z,25.88
2023-06-29T04:16:13.205Z,25.88
2023-06-29T04:18:14.710Z,25.87
2023-06-29T04:20:16.209Z,25.88
2023-06-29T04:22:17.728Z,25.87
2023-06-29T04:24:19.177Z,25.87
2023-06-29T04:26:23.643Z,25.87
2023-06-29T04:28:25.130Z,25.86
2023-06-29T04:30:26.727Z,25.86
2023-06-29T04:32:28.281Z,25.86
2023-06-29T04:34:29.793Z,25.86
2023-06-29T04:36:31.405Z,25.85
2023-06-29T04:38:32.959Z,25.86
2023-06-29T04:40:34.582Z,25.85
2023-06-29T04:42:44.668Z,25.85
2023-06-29T04:44:46.305Z,25.85
2023-06-29T04:46:48.917Z,25.85
2023-06-29T04:48:50.430Z,25.85
2023-06-29T04:50:52.020Z,25.84
2023-06-29T04:52:56.892Z,25.85
2023-06-29T04:54:58.540Z,25.84
2023-06-29T04:57:00.545Z,25.83
2023-06-29T04:59:02.171Z,25.83
2023-06-29T05:01:04.421Z,25.83
2023-06-29T05:03:06.062Z,25.83
2023-06-29T05:05:08.667Z,25.82
2023-06-29T05:07:10.213Z,25.82
2023-06-29T05:09:11.749Z,25.83
2023-06-29T05:11:13.323Z,25.82
2023-06-29T05:13:15.084Z,25.82
2023-06-29T05:15:16.691Z,25.81
2023-06-29T05:17:21.139Z,25.82
2023-06-29T05:19:22.572Z,25.81
2023-06-29T05:21:24.084Z,25.80
2023-06-29T05:23:25.631Z,25.81
2023-06-29T05:25:27.240Z,25.81
2023-06-29T05:27:28.825Z,25.81
2023-06-29T05:29:30.460Z,25.80
2023-06-29T05:31:32.153Z,25.80
2023-06-29T05:33:33.701Z,25.80
2023-06-29T05:35:36.670Z,25.80
2023-06-29T05:37:38.121Z,25.79
2023-06-29T05:39:39.602Z,25.80
2023-06-29T05:41:41.094Z,25.79
2023-06-29T05:43:42.623Z,25.79
2023-06-29T05:45:44.196Z,25.79
2023-06-29T05:47:45.927Z,25.79
2023-06-29T05:49:47.567Z,25.78
2023-06-29T05:51:49.004Z,25.79
2023-06-29T05:53:50.653Z,25.77
2023-06-29T05:55:52.124Z,25.78
2023-06-29T05:57:53.694Z,25.77
2023-06-29T05:59:55.984Z,25.78
2023-06-29T06:01:57.577Z,25.77
2023-06-29T06:03:59.648Z,25.77
2023-06-29T06:06:01.235Z,25.77
2023-06-29T06:08:02.897Z,25.76
2023-06-29T06:10:04.889Z,25.77
2023-06-29T06:12:06.810Z,25.76
2023-06-29T06:14:08.364Z,25.76
2023-06-29T06:16:09.880Z,25.75
2023-06-29T06:18:11.535Z,25.76
2023-06-29T06:20:13.988Z,25.76
2023-06-29T06:22:15.779Z,25.75
2023-06-29T06:24:17.426Z,25.74
2023-06-29T06:26:18.971Z,25.73
2023-06-29T06:28:20.873Z,25.75
2023-06-29T06:30:24.620Z,25.75
2023-06-29T06:32:26.451Z,25.74
2023-06-29T06:36:41.344Z,25.74
2023-06-29T06:38:50.258Z,25.74
2023-06-29T06:40:52.671Z,25.74
2023-06-29T06:42:54.426Z,25.74
2023-06-29T06:44:56.987Z,25.73
2023-06-29T06:46:58.565Z,25.74
2023-06-29T06:49:00.339Z,25.73
2023-06-29T06:51:01.820Z,25.73
2023-06-29T06:53:03.303Z,25.73
2023-06-29T06:55:06.718Z,25.73
2023-06-29T06:57:08.250Z,25.73
2023-06-29T06:59:09.826Z,25.76
2023-06-29T07:01:11.354Z,25.77
2023-06-29T07:03:12.987Z,25.79
2023-06-29T07:05:15.866Z,25.82
2023-06-29T07:07:17.486Z,25.84
2023-06-29T07:09:19.026Z,25.88
2023-06-29T07:11:21.050Z,25.92
2023-06-29T07:13:23.292Z,25.95
2023-06-29T07:15:24.841Z,25.99
2023-06-29T07:17:27.391Z,26.03
2023-06-29T07:21:33.382Z,26.10
2023-06-29T07:25:39.632Z,26.18
2023-06-29T07:27:41.225Z,26.21
2023-06-29T07:29:44.006Z,26.26
2023-06-29T07:31:45.617Z,26.29
2023-06-29T07:33:47.192Z,26.31
2023-06-29T07:35:48.909Z,26.35
2023-06-29T07:37:50.461Z,26.38
2023-06-29T07:39:52.106Z,26.42
2023-06-29T07:41:53.785Z,26.45
2023-06-29T07:43:56.423Z,26.48
2023-06-29T07:45:58.226Z,26.50
2023-06-29T07:47:59.901Z,26.52
2023-06-29T07:50:01.677Z,26.54
2023-06-29T07:52:03.323Z,26.54
2023-06-29T07:54:09.346Z,26.55
2023-06-29T07:56:11.031Z,26.54
2023-06-29T08:00:18.165Z,26.57
2023-06-29T08:02:19.743Z,26.57
2023-06-29T08:08:30.397Z,26.53
2023-06-29T08:10:32.183Z,26.53
2023-06-29T08:12:33.728Z,26.51
2023-06-29T08:14:36.524Z,26.51
2023-06-29T08:16:38.170Z,26.50
2023-06-29T08:18:39.881Z,26.48
2023-06-29T08:20:42.979Z,26.48
2023-06-29T08:22:45.045Z,26.46
2023-06-29T08:24:46.533Z,26.46
2023-06-29T08:26:48.089Z,26.46
2023-06-29T08:28:50.189Z,26.45
2023-06-29T08:30:52.683Z,26.44
2023-06-29T08:32:54.596Z,26.45
2023-06-29T08:34:56.184Z,26.44
2023-06-29T08:36:57.839Z,26.45
2023-06-29T08:38:59.353Z,26.45
2023-06-29T08:41:02.521Z,26.45
2023-06-29T08:43:04.119Z,26.44
2023-06-29T08:45:06.986Z,26.44
2023-06-29T08:47:08.609Z,26.44
2023-06-29T08:49:10.259Z,26.44
2023-06-29T08:51:14.842Z,26.44
2023-06-29T08:53:16.352Z,26.44
2023-06-29T08:55:18.091Z,26.43
2023-06-29T08:57:20.173Z,26.44
2023-06-29T08:59:22.532Z,26.44
2023-06-29T09:01:24.075Z,26.44
2023-06-29T09:03:27.746Z,26.44
2023-06-29T09:05:29.689Z,26.43
2023-06-29T09:07:31.252Z,26.42
2023-06-29T09:09:33.333Z,26.43
2023-06-29T09:11:36.500Z,26.43
2023-06-29T09:13:38.109Z,26.44
2023-06-29T09:15:40.737Z,26.43
2023-06-29T09:17:48.760Z,26.43
2023-06-29T09:19:57.957Z,26.43
2023-06-29T09:22:01.572Z,26.43
2023-06-29T09:24:04.273Z,26.43
2023-06-29T09:26:06.640Z,26.43
2023-06-29T09:28:09.152Z,26.42
2023-06-29T09:30:21.685Z,26.42
2023-06-29T09:32:23.349Z,26.43
2023-06-29T09:34:29.134Z,26.42
2023-06-29T09:36:30.773Z,26.41
2023-06-29T09:38:33.395Z,26.41
2023-06-29T09:40:48.683Z,26.40
2023-06-29T09:42:50.294Z,26.41
2023-06-29T09:44:51.809Z,26.41
2023-06-29T09:49:10.760Z,26.41
2023-06-29T09:51:19.152Z,26.41
2023-06-29T09:53:33.777Z,26.41
2023-06-29T09:55:35.863Z,26.41
2023-06-29T09:57:38.849Z,26.41
2023-06-29T09:59:45.444Z,26.41
2023-06-29T10:01:47.158Z,26.41
2023-06-29T10:03:48.893Z,26.41
2023-06-29T10:05:52.801Z,26.42
2023-06-29T10:07:54.454Z,26.42
2023-06-29T10:09:56.136Z,26.41
2023-06-29T10:11:59.823Z,26.42
2023-06-29T10:14:03.096Z,26.42
2023-06-29T10:16:07.003Z,26.41
2023-06-29T10:18:22.348Z,26.41
2023-06-29T10:20:25.667Z,26.42
2023-06-29T10:22:28.127Z,26.41
2023-06-29T10:24:35.483Z,26.41
2023-06-29T10:26:37.500Z,26.40
2023-06-29T10:28:39.352Z,26.40
2023-06-29T10:30:45.752Z,26.40
2023-06-29T10:32:51.523Z,26.41
2023-06-29T10:35:09.603Z,26.40
2023-06-29T10:37:11.051Z,26.41
2023-06-29T10:39:31.723Z,26.40
2023-06-29T10:41:33.295Z,26.41
2023-06-29T10:43:53.687Z,26.41
2023-06-29T10:45:55.185Z,26.40
2023-06-29T10:47:56.798Z,26.41
2023-06-29T10:50:10.856Z,26.41
2023-06-29T10:52:23.540Z,26.41
2023-06-29T10:54:25.652Z,26.42
2023-06-29T10:56:31.176Z,26.43
2023-06-29T10:58:39.176Z,26.43
2023-06-29T11:00:40.796Z,26.42
2023-06-29T11:02:43.022Z,26.44
2023-06-29T11:04:44.542Z,26.44
2023-06-29T11:06:46.056Z,26.44
2023-06-29T11:08:48.929Z,26.44
2023-06-29T11:17:33.877Z,26.43
2023-06-29T11:19:35.483Z,26.44
2023-06-29T11:21:37.068Z,26.46
2023-06-29T11:23:49.600Z,26.46
2023-06-29T11:25:51.100Z,26.46
2023-06-29T11:27:53.065Z,26.47
2023-06-29T11:29:55.593Z,26.49
2023-06-29T11:31:57.313Z,26.49
2023-06-29T11:33:59.167Z,26.49
2023-06-29T11:36:04.107Z,26.51
2023-06-29T11:38:05.791Z,26.51
2023-06-29T11:40:21.222Z,26.53
2023-06-29T11:42:23.886Z,26.54
2023-06-29T11:44:26.096Z,26.56
2023-06-29T11:46:27.998Z,26.57
2023-06-29T11:48:30.742Z,26.57
2023-06-29T11:52:41.041Z,26.56
2023-06-29T11:54:42.690Z,26.57
2023-06-29T11:56:44.612Z,26.56
2023-06-29T12:00:58.891Z,26.54
2023-06-29T12:03:09.044Z,26.54
2023-06-29T12:05:11.592Z,26.54
2023-06-29T12:07:13.257Z,26.53
2023-06-29T12:09:14.927Z,26.53
2023-06-29T12:13:24.568Z,26.55
2023-06-29T12:15:27.555Z,26.55
2023-06-29T12:19:45.133Z,26.56
2023-06-29T12:21:53.255Z,26.54
2023-06-29T12:23:56.506Z,26.56
2023-06-29T12:25:57.957Z,26.56
2023-06-29T12:27:59.404Z,26.56
2023-06-29T12:30:01.258Z,26.56
2023-06-29T12:32:02.805Z,26.57
2023-06-29T12:40:19.108Z,26.57
2023-06-29T12:42:20.794Z,26.59
2023-06-29T12:44:22.445Z,26.61
2023-06-29T12:50:36.001Z,26.62
2023-06-29T12:52:37.715Z,26.62
2023-06-29T12:54:39.612Z,26.63
2023-06-29T12:56:41.131Z,26.64
2023-06-29T13:00:49.312Z,26.66
2023-06-29T13:02:53.569Z,26.66
2023-06-29T13:04:55.423Z,26.67
2023-06-29T13:06:57.349Z,26.69
2023-06-29T13:08:59.271Z,26.71
2023-06-29T13:11:00.758Z,26.70
2023-06-29T13:15:09.111Z,26.75
2023-06-29T13:17:11.934Z,26.75
2023-06-29T13:19:13.510Z,26.77
2023-06-29T13:21:14.991Z,26.78
2023-06-29T13:23:16.470Z,26.78
2023-06-29T13:25:18.184Z,26.80
2023-06-29T13:27:19.621Z,26.80
2023-06-29T13:29:21.160Z,26.81
2023-06-29T13:31:22.755Z,26.83
2023-06-29T13:33:24.481Z,26.83
2023-06-29T13:39:38.724Z,26.83
2023-06-29T13:41:43.329Z,26.83
2023-06-29T13:43:44.833Z,26.82
2023-06-29T13:45:48.888Z,26.82
2023-06-29T13:47:58.470Z,26.82
2023-06-29T13:50:00.120Z,26.81
2023-06-29T13:52:01.620Z,26.81
2023-06-29T13:54:04.243Z,26.80
2023-06-29T13:56:05.760Z,26.79
2023-06-29T13:58:07.703Z,26.78
2023-06-29T14:00:09.520Z,26.78
2023-06-29T14:02:11.318Z,26.73
2023-06-29T14:04:13.001Z,26.74
2023-06-29T14:06:15.080Z,26.72
2023-06-29T14:08:16.818Z,26.71
2023-06-29T14:10:18.280Z,26.69
2023-06-29T14:12:19.849Z,26.68
2023-06-29T14:14:21.342Z,26.68
2023-06-29T14:16:24.151Z,26.68
2023-06-29T14:18:26.588Z,26.66
2023-06-29T14:20:28.296Z,26.64
2023-06-29T14:22:29.958Z,26.62
2023-06-29T14:24:31.509Z,26.60
2023-06-29T14:26:33.232Z,26.60
2023-06-29T14:28:35.533Z,26.59
2023-06-29T14:30:37.174Z,26.57
2023-06-29T14:32:38.871Z,26.56
2023-06-29T14:34:40.433Z,26.53
2023-06-29T14:36:42.022Z,26.53
2023-06-29T14:38:43.827Z,26.53
2023-06-29T14:40:45.571Z,26.52
2023-06-29T14:42:47.408Z,26.53
2023-06-29T14:44:48.929Z,26.52
2023-06-29T14:46:51.247Z,26.50
2023-06-29T14:48:52.796Z,26.50
2023-06-29T14:50:54.388Z,26.50
2023-06-29T14:52:55.981Z,26.49
2023-06-29T14:54:57.422Z,26.50
2023-06-29T14:56:59.221Z,26.49
2023-06-29T14:59:00.849Z,26.49
2023-06-29T15:01:02.553Z,26.48
2023-06-29T15:03:05.085Z,26.49
2023-06-29T15:05:06.885Z,26.49
2023-06-29T15:07:08.622Z,26.49
2023-06-29T15:09:10.225Z,26.49
2023-06-29T15:11:11.782Z,26.48
2023-06-29T15:13:13.334Z,26.48
2023-06-29T15:15:15.275Z,26.47
2023-06-29T15:17:17.029Z,26.47
2023-06-29T15:19:18.489Z,26.46
2023-06-29T15:21:19.955Z,26.46
2023-06-29T15:23:21.485Z,26.45
2023-06-29T15:25:23.046Z,26.46
2023-06-29T15:27:24.572Z,26.45
2023-06-29T15:29:26.737Z,26.46
2023-06-29T15:31:28.281Z,26.45
2023-06-29T15:33:29.844Z,26.44
2023-06-29T15:35:31.341Z,26.45
2023-06-29T15:37:33.917Z,26.45
2023-06-29T15:39:36.364Z,26.45
2023-06-29T15:41:38.401Z,26.45
2023-06-29T15:43:40.191Z,26.44
2023-06-29T15:45:41.813Z,26.43
2023-06-29T15:47:43.517Z,26.42
2023-06-29T15:49:45.107Z,26.42
2023-06-29T15:51:46.630Z,26.42
2023-06-29T15:53:48.265Z,26.42
2023-06-29T15:55:50.120Z,26.42
2023-06-29T15:57:51.624Z,26.42
2023-06-29T15:59:53.105Z,26.43
2023-06-29T16:01:54.675Z,26.43
2023-06-29T16:03:56.493Z,26.45
2023-06-29T16:05:58.044Z,26.45
2023-06-29T16:07:59.566Z,26.46
2023-06-29T16:10:01.108Z,26.46
2023-06-29T16:12:02.701Z,26.48
2023-06-29T16:14:04.250Z,26.48
2023-06-29T16:16:05.802Z,26.49
2023-06-29T16:18:07.419Z,26.49
2023-06-29T16:20:11.267Z,26.49
2023-06-29T16:22:13.117Z,26.50
2023-06-29T16:24:14.796Z,26.51
2023-06-29T16:26:17.362Z,26.51
2023-06-29T16:28:19.104Z,26.52
2023-06-29T16:30:20.902Z,26.52
2023-06-29T16:32:22.549Z,26.51
2023-06-29T16:34:24.244Z,26.52
2023-06-29T16:36:25.779Z,26.51
2023-06-29T16:38:27.336Z,26.50
2023-06-29T16:40:28.996Z,26.51
2023-06-29T16:42:30.523Z,26.50
2023-06-29T16:44:32.487Z,26.50
2023-06-29T16:46:34.756Z,26.48
2023-06-29T16:48:36.363Z,26.48
2023-06-29T16:50:37.885Z,26.50
2023-06-29T16:52:40.034Z,26.50
2023-06-29T16:54:41.560Z,26.53
2023-06-29T16:56:43.182Z,26.56
2023-06-29T16:58:44.688Z,26.58
2023-06-29T17:00:46.210Z,26.59
2023-06-29T17:02:48.208Z,26.60
2023-06-29T17:04:49.833Z,26.62
2023-06-29T17:06:51.448Z,26.62
2023-06-29T17:08:53.066Z,26.48
2023-06-29T17:10:57.021Z,26.62
2023-06-29T17:12:58.627Z,26.62
2023-06-29T17:15:00.301Z,26.62
2023-06-29T17:17:02.174Z,26.62
2023-06-29T17:19:03.803Z,26.61
2023-06-29T17:21:05.346Z,26.60
2023-06-29T17:23:06.940Z,26.60
2023-06-29T17:25:08.699Z,26.59
2023-06-29T17:27:10.671Z,26.58
2023-06-29T17:29:12.145Z,26.58
2023-06-29T17:31:13.716Z,26.56
2023-06-29T17:33:15.556Z,26.55
2023-06-29T17:35:17.130Z,26.53
2023-06-29T17:37:18.662Z,26.53
2023-06-29T17:39:21.951Z,26.52
2023-06-29T17:41:23.495Z,26.51
2023-06-29T17:43:24.952Z,26.50
2023-06-29T17:45:27.024Z,26.49
2023-06-29T17:47:29.499Z,26.47
2023-06-29T17:49:32.371Z,26.46
2023-06-29T17:51:33.910Z,26.45
2023-06-29T17:53:35.370Z,26.44
2023-06-29T17:55:36.921Z,26.42
2023-06-29T17:57:38.402Z,26.41
2023-06-29T17:59:40.336Z,26.40
2023-06-29T18:01:41.873Z,26.40
2023-06-29T18:03:43.637Z,26.38
2023-06-29T18:05:45.603Z,26.38
2023-06-29T18:07:47.443Z,26.38
2023-06-29T18:09:49.008Z,26.37
2023-06-29T18:11:53.252Z,26.36
2023-06-29T18:13:55.000Z,26.35
2023-06-29T18:15:56.603Z,26.34
2023-06-29T18:17:58.633Z,26.33
2023-06-29T18:20:01.035Z,26.33
2023-06-29T18:22:02.635Z,26.31
2023-06-29T18:24:05.583Z,26.30
2023-06-29T18:26:08.181Z,26.30
2023-06-29T18:28:09.790Z,26.29
2023-06-29T18:30:12.309Z,26.28
2023-06-29T18:32:13.825Z,26.28
2023-06-29T18:34:15.425Z,26.27
2023-06-29T18:36:17.019Z,26.27
2023-06-29T18:38:18.524Z,26.26
2023-06-29T18:40:21.567Z,26.25
2023-06-29T18:42:23.317Z,26.25
2023-06-29T18:44:24.865Z,26.24
2023-06-29T18:46:27.257Z,26.23
2023-06-29T18:48:29.186Z,26.23
2023-06-29T18:50:30.945Z,26.21
2023-06-29T18:52:32.504Z,26.21
2023-06-29T18:54:34.683Z,26.21
2023-06-29T18:56:36.155Z,26.20
2023-06-29T18:58:37.671Z,26.19
2023-06-29T19:00:39.292Z,26.19
2023-06-29T19:02:43.340Z,26.18
2023-06-29T19:04:45.293Z,26.17
2023-06-29T19:06:47.606Z,26.17
2023-06-29T19:08:49.145Z,26.16
2023-06-29T19:10:50.841Z,26.15
2023-06-29T19:12:52.276Z,26.15
2023-06-29T19:14:54.235Z,26.15
2023-06-29T19:16:59.402Z,26.00
2023-06-29T19:19:01.226Z,26.14
2023-06-29T19:21:02.947Z,26.13
2023-06-29T19:23:04.498Z,26.13
2023-06-29T19:25:07.778Z,26.11
2023-06-29T19:27:09.340Z,26.11
2023-06-29T19:29:14.542Z,26.11
2023-06-29T19:31:16.464Z,26.10
2023-06-29T19:33:17.912Z,26.10
2023-06-29T19:35:19.376Z,26.09
2023-06-29T19:37:21.095Z,26.08
2023-06-29T19:39:22.901Z,26.08
2023-06-29T19:41:24.647Z,26.08
2023-06-29T19:43:26.378Z,26.05
2023-06-29T19:45:27.898Z,26.07
2023-06-29T19:47:29.590Z,26.05
2023-06-29T19:49:32.275Z,26.05
2023-06-29T19:51:35.209Z,26.04
2023-06-29T19:53:36.877Z,26.04
2023-06-29T19:55:38.414Z,26.03
2023-06-29T19:57:39.937Z,26.02
2023-06-29T19:59:41.744Z,26.02
2023-06-29T20:01:43.350Z,26.02
2023-06-29T20:03:45.016Z,26.01
2023-06-29T20:05:46.949Z,26.01
2023-06-29T20:07:48.675Z,26.00
2023-06-29T20:09:50.224Z,26.00
2023-06-29T20:11:51.715Z,25.99
2023-06-29T20:13:53.266Z,25.99
2023-06-29T20:15:54.966Z,25.99
2023-06-29T20:17:56.596Z,25.98
2023-06-29T20:19:58.421Z,25.97
2023-06-29T20:21:59.945Z,25.96
2023-06-29T20:24:01.439Z,25.96
2023-06-29T20:26:02.945Z,25.96
2023-06-29T20:28:04.659Z,25.96
2023-06-29T20:30:06.889Z,25.95
2023-06-29T20:32:08.708Z,25.94
2023-06-29T20:34:10.229Z,25.94
2023-06-29T20:36:15.401Z,25.94
2023-06-29T20:38:16.952Z,25.92
2023-06-29T20:40:18.540Z,25.93
2023-06-29T20:42:19.982Z,25.92
2023-06-29T20:44:23.180Z,25.91
2023-06-29T20:46:25.814Z,25.92
2023-06-29T20:48:27.636Z,25.91
2023-06-29T20:50:29.205Z,25.91
2023-06-29T20:52:30.762Z,25.89
2023-06-29T20:54:32.250Z,25.89
2023-06-29T20:56:33.867Z,25.65
2023-06-29T20:58:36.109Z,25.87
2023-06-29T21:00:37.780Z,25.87
2023-06-29T21:02:39.604Z,25.87
2023-06-29T21:04:41.295Z,25.87
2023-06-29T21:06:43.045Z,25.86
2023-06-29T21:08:44.565Z,25.87
2023-06-29T21:10:46.028Z,25.86
2023-06-29T21:12:47.812Z,25.85
2023-06-29T21:14:49.460Z,25.85
2023-06-29T21:16:51.035Z,25.85
2023-06-29T21:18:54.389Z,25.84
2023-06-29T21:20:56.033Z,25.84
2023-06-29T21:22:57.669Z,25.82
2023-06-29T21:24:59.460Z,25.83
2023-06-29T21:27:01.916Z,25.82
2023-06-29T21:33:19.541Z,25.81
2023-06-29T21:35:21.300Z,25.80
2023-06-29T21:37:22.889Z,25.79
2023-06-29T21:39:24.377Z,25.79
2023-06-29T21:45:38.882Z,25.79
2023-06-29T21:47:40.449Z,25.77
2023-06-29T21:49:41.968Z,25.77
2023-06-29T21:51:43.577Z,25.77
2023-06-29T21:55:51.551Z,25.76
2023-06-29T21:57:54.764Z,25.75
2023-06-29T21:59:56.477Z,25.75
2023-06-29T22:01:58.056Z,25.74
2023-06-29T22:03:59.606Z,25.73
2023-06-29T22:06:01.219Z,25.73
2023-06-29T22:08:02.861Z,25.72
2023-06-29T22:10:04.829Z,25.72
2023-06-29T22:12:06.845Z,25.71
2023-06-29T22:14:08.976Z,25.71
2023-06-29T22:22:30.047Z,25.70
2023-06-29T22:24:31.620Z,25.69
2023-06-29T22:26:33.756Z,25.68
2023-06-29T22:28:35.289Z,25.67
2023-06-29T22:32:51.838Z,25.67
2023-06-29T22:34:54.294Z,25.67
2023-06-29T22:36:55.777Z,25.66
2023-06-29T22:38:57.698Z,25.66
2023-06-29T22:40:59.232Z,25.65
2023-06-29T22:43:00.701Z,25.65
2023-06-29T22:45:02.785Z,25.64
2023-06-29T22:47:04.401Z,25.63
2023-06-29T22:49:05.913Z,25.63
2023-06-29T22:51:07.571Z,25.62
2023-06-29T22:53:09.079Z,25.62
2023-06-29T22:55:10.870Z,25.62
2023-06-29T22:57:12.361Z,25.61
2023-06-29T22:59:13.977Z,25.61
2023-06-29T23:01:15.728Z,25.60
2023-06-29T23:03:17.337Z,25.60
2023-06-29T23:05:19.008Z,25.60
2023-06-29T23:07:23.811Z,25.57
2023-06-29T23:09:26.064Z,25.59
2023-06-29T23:11:32.102Z,25.58
2023-06-29T23:13:39.471Z,25.57
2023-06-29T23:15:43.426Z,25.57
2023-06-29T23:17:45.711Z,25.57
2023-06-29T23:19:47.523Z,25.56
2023-06-29T23:21:49.002Z,25.56
2023-06-29T23:23:50.517Z,25.55
2023-06-29T23:25:52.065Z,25.55
2023-06-29T23:27:54.831Z,25.55
2023-06-29T23:29:56.343Z,25.54
2023-06-29T23:31:57.927Z,25.54
2023-06-29T23:34:01.882Z,25.53
2023-06-29T23:36:04.344Z,25.52
2023-06-29T23:38:05.960Z,25.37
2023-06-29T23:40:10.402Z,25.51
2023-06-29T23:42:12.145Z,25.51
2023-06-29T23:44:14.700Z,25.50
2023-06-29T23:46:16.754Z,25.50
2023-06-29T23:48:18.368Z,25.50
2023-06-29T23:50:19.842Z,25.49
2023-06-29T23:52:21.372Z,25.50
2023-06-29T23:54:22.945Z,25.49
2023-06-29T23:56:24.672Z,25.48
2023-06-29T23:58:26.294Z,25.47
